Terminal Aerodrome Forecast
Issued by NWS Jackson, KY

Home | Current Version | Previous Version | Text Only | Print | Product List | Glossary On
Versions: 1 2 3 4 5 6 7 8 9 10 11 12 13 14 15 16 17 18 19 20 21 22 23 24
000
FTUS43 KJKL 040530
TAFLOZ
TAF
KLOZ 040530Z 0406/0506 23010G16KT P6SM -RA FEW008 BKN011 OVC024
     FM041100 35007KT 1SM +SHRA BR OVC006
     FM050200 22008KT 3SM -RAPL BR OVC004=

USA.gov is the U.S. government's official web portal to all federal, state and local government web resources and services.